createdAt,value
2023-03-26T00:02:07.120Z,64.63
2023-03-26T00:04:36.013Z,64.57
2023-03-26T00:07:05.308Z,64.67
2023-03-26T00:09:34.095Z,64.64
2023-03-26T00:12:03.244Z,64.76
2023-03-26T00:14:32.910Z,64.95
2023-03-26T00:17:02.720Z,65.05
2023-03-26T00:19:31.189Z,65.19
2023-03-26T00:22:00.909Z,65.18
2023-03-26T00:24:30.921Z,65.05
2023-03-26T00:26:59.984Z,65.14
2023-03-26T00:29:28.827Z,65.21
2023-03-26T00:31:57.691Z,65.20
2023-03-26T00:34:27.107Z,65.24
2023-03-26T00:36:56.238Z,65.41
2023-03-26T00:39:26.221Z,65.58
2023-03-26T00:41:55.748Z,65.84
2023-03-26T00:44:24.414Z,65.96
2023-03-26T00:46:53.716Z,66.08
2023-03-26T00:49:22.715Z,66.15
2023-03-26T00:51:51.408Z,66.25
2023-03-26T00:54:20.183Z,66.48
2023-03-26T00:56:48.907Z,66.62
2023-03-26T00:59:18.090Z,66.98
2023-03-26T01:01:47.506Z,67.00
2023-03-26T01:04:31.707Z,67.17
2023-03-26T01:07:10.360Z,67.34
2023-03-26T01:09:45.876Z,67.47
2023-03-26T01:12:18.720Z,67.51
2023-03-26T01:14:50.993Z,67.62
2023-03-26T01:17:19.929Z,67.81
2023-03-26T01:19:57.420Z,68.02
2023-03-26T01:22:27.734Z,68.14
2023-03-26T01:24:57.013Z,68.20
2023-03-26T01:27:47.361Z,68.14
2023-03-26T01:30:41.830Z,68.10
2023-03-26T01:33:30.531Z,68.13
2023-03-26T01:36:07.490Z,68.04
2023-03-26T01:39:00.643Z,68.02
2023-03-26T01:41:35.349Z,67.93
2023-03-26T01:44:15.609Z,68.03
2023-03-26T01:46:45.651Z,68.02
2023-03-26T01:49:14.201Z,67.93
2023-03-26T01:51:43.095Z,67.84
2023-03-26T01:54:20.048Z,67.94
2023-03-26T01:57:10.130Z,68.06
2023-03-26T02:00:16.782Z,67.99
2023-03-26T02:02:55.348Z,67.90
2023-03-26T02:05:37.760Z,67.83
2023-03-26T02:08:24.374Z,67.61
2023-03-26T02:10:57.690Z,67.72
2023-03-26T02:13:26.852Z,67.64
2023-03-26T02:16:06.799Z,67.55
2023-03-26T02:18:41.892Z,67.39
2023-03-26T02:21:20.449Z,67.27
2023-03-26T02:23:58.209Z,67.25
2023-03-26T02:26:26.803Z,67.07
2023-03-26T02:29:10.894Z,66.82
2023-03-26T02:31:40.459Z,66.53
2023-03-26T02:34:09.148Z,66.35
2023-03-26T02:36:39.100Z,66.35
2023-03-26T02:39:07.773Z,66.28
2023-03-26T02:41:41.049Z,66.32
2023-03-26T02:44:11.612Z,66.42
2023-03-26T02:46:58.930Z,66.52
2023-03-26T02:49:43.177Z,66.57
2023-03-26T02:52:17.405Z,66.53
2023-03-26T02:54:46.501Z,66.52
2023-03-26T02:57:20.518Z,66.48
2023-03-26T03:00:09.120Z,66.47
2023-03-26T03:02:40.742Z,66.37
2023-03-26T03:05:35.219Z,66.35
2023-03-26T03:08:24.464Z,66.07
2023-03-26T03:11:16.992Z,66.00
2023-03-26T03:13:51.459Z,66.19
2023-03-26T03:16:38.273Z,66.22
2023-03-26T03:19:13.545Z,66.07
2023-03-26T03:21:42.444Z,65.69
2023-03-26T03:24:14.353Z,65.51
2023-03-26T03:26:47.882Z,65.54
2023-03-26T03:29:36.809Z,65.46
2023-03-26T03:32:43.897Z,65.02
2023-03-26T03:35:13.096Z,64.83
2023-03-26T03:37:43.613Z,64.37
2023-03-26T03:40:13.228Z,64.39
2023-03-26T03:42:42.422Z,64.32
2023-03-26T03:45:11.722Z,64.38
2023-03-26T03:47:59.186Z,64.33
2023-03-26T03:50:37.873Z,64.24
2023-03-26T03:53:22.231Z,64.27
2023-03-26T03:55:57.631Z,64.22
2023-03-26T03:58:34.931Z,64.40
2023-03-26T04:01:11.343Z,63.85
2023-03-26T04:04:02.183Z,63.98
2023-03-26T04:06:46.796Z,64.18
2023-03-26T04:09:16.185Z,64.24
2023-03-26T04:11:46.427Z,64.21
2023-03-26T04:14:31.620Z,64.15
2023-03-26T04:17:05.700Z,63.96
2023-03-26T04:19:37.242Z,64.06
2023-03-26T04:22:10.928Z,64.15
2023-03-26T04:24:50.497Z,64.15
2023-03-26T04:27:43.545Z,64.12
2023-03-26T04:30:42.775Z,64.30
2023-03-26T04:33:40.420Z,64.47
2023-03-26T04:36:10.509Z,64.93
2023-03-26T04:38:45.671Z,65.07
2023-03-26T04:41:15.704Z,65.41
2023-03-26T04:43:50.882Z,65.63
2023-03-26T04:46:43.867Z,65.58
2023-03-26T04:49:27.242Z,65.63
2023-03-26T04:51:56.164Z,65.70
2023-03-26T04:54:47.024Z,65.52
2023-03-26T04:57:26.159Z,65.83
2023-03-26T05:00:16.738Z,65.70
2023-03-26T05:02:50.783Z,65.76
2023-03-26T05:05:20.462Z,65.87
2023-03-26T05:07:50.366Z,65.94
2023-03-26T05:10:20.837Z,66.10
2023-03-26T05:12:56.761Z,66.14
2023-03-26T05:15:31.705Z,66.16
2023-03-26T05:18:16.542Z,66.23
2023-03-26T05:20:49.075Z,66.34
2023-03-26T05:23:17.620Z,66.44
2023-03-26T05:26:03.841Z,66.49
2023-03-26T05:28:32.815Z,66.47
2023-03-26T05:31:08.398Z,66.54
2023-03-26T05:33:39.859Z,66.64
2023-03-26T05:36:15.670Z,66.79
2023-03-26T05:38:49.766Z,66.67
2023-03-26T05:41:41.299Z,66.84
2023-03-26T05:44:10.407Z,66.77
2023-03-26T05:46:39.202Z,66.78
2023-03-26T05:49:08.231Z,66.79
2023-03-26T05:51:40.661Z,66.80
2023-03-26T05:54:28.196Z,66.78
2023-03-26T05:57:24.112Z,66.74
2023-03-26T06:00:12.360Z,66.38
2023-03-26T06:02:48.283Z,66.09
2023-03-26T06:05:37.398Z,66.06
2023-03-26T06:08:12.084Z,65.82
2023-03-26T06:10:41.960Z,65.57
2023-03-26T06:13:10.794Z,65.47
2023-03-26T06:15:41.718Z,65.41
2023-03-26T06:18:25.712Z,65.34
2023-03-26T06:21:14.770Z,65.36
2023-03-26T06:23:51.973Z,65.35
2023-03-26T06:26:48.616Z,65.18
2023-03-26T06:29:36.092Z,65.13
2023-03-26T06:32:20.447Z,64.96
2023-03-26T06:35:12.421Z,64.61
2023-03-26T06:37:42.801Z,64.48
2023-03-26T06:40:13.677Z,64.39
2023-03-26T06:43:11.261Z,64.21
2023-03-26T06:46:21.455Z,63.33
2023-03-26T06:49:09.217Z,63.67
2023-03-26T06:51:55.285Z,64.00
2023-03-26T06:54:44.444Z,64.01
2023-03-26T06:57:32.841Z,63.97
2023-03-26T07:00:43.945Z,64.47
2023-03-26T07:03:32.287Z,64.92
2023-03-26T07:06:20.926Z,65.25
2023-03-26T07:09:09.094Z,65.24
2023-03-26T07:11:43.517Z,65.22
2023-03-26T07:14:39.157Z,64.97
2023-03-26T07:17:26.040Z,65.33
2023-03-26T07:20:01.696Z,64.48
2023-03-26T07:22:38.691Z,64.94
2023-03-26T07:25:36.875Z,64.13
2023-03-26T07:28:17.881Z,64.66
2023-03-26T07:31:22.771Z,64.73
2023-03-26T07:34:26.726Z,63.24
2023-03-26T07:37:41.095Z,63.66
2023-03-26T07:41:01.782Z,63.03
2023-03-26T07:44:11.899Z,62.47
2023-03-26T07:47:04.950Z,62.52
2023-03-26T07:49:43.754Z,63.05
2023-03-26T07:52:24.718Z,63.08
2023-03-26T07:55:16.445Z,62.72
2023-03-26T07:58:25.850Z,62.57
2023-03-26T08:01:44.596Z,61.91
2023-03-26T08:04:39.889Z,62.02
2023-03-26T08:07:52.035Z,61.96
2023-03-26T08:11:03.827Z,61.96
2023-03-26T08:14:04.181Z,62.01
2023-03-26T08:16:52.390Z,61.73
2023-03-26T08:19:38.919Z,60.32
2023-03-26T08:22:17.588Z,60.23
2023-03-26T08:25:25.863Z,59.93
2023-03-26T08:28:09.606Z,59.02
2023-03-26T08:30:42.087Z,58.00
2023-03-26T08:33:12.978Z,58.83
2023-03-26T08:35:42.903Z,58.59
2023-03-26T08:38:17.565Z,57.99
2023-03-26T08:40:58.638Z,57.74
2023-03-26T08:43:53.335Z,57.94
2023-03-26T08:46:36.270Z,57.69
2023-03-26T08:49:56.893Z,56.73
2023-03-26T08:52:35.243Z,57.07
2023-03-26T08:58:59.665Z,56.20
2023-03-26T09:01:47.016Z,56.25
2023-03-26T09:04:47.345Z,56.84
2023-03-26T09:08:01.918Z,56.51
2023-03-26T09:10:52.016Z,54.55
2023-03-26T09:13:57.408Z,55.66
2023-03-26T09:16:43.862Z,55.93
2023-03-26T09:19:47.914Z,55.59
2023-03-26T09:22:53.683Z,55.34
2023-03-26T09:26:00.457Z,55.06
2023-03-26T09:29:00.286Z,54.29
2023-03-26T09:31:59.854Z,56.53
2023-03-26T09:34:30.475Z,55.88
2023-03-26T09:37:14.986Z,55.75
2023-03-26T09:40:18.564Z,54.72
2023-03-26T09:43:16.343Z,54.90
2023-03-26T09:46:00.380Z,56.51
2023-03-26T09:48:46.386Z,56.87
2023-03-26T09:51:43.874Z,56.62
2023-03-26T09:54:51.499Z,56.33
2023-03-26T09:57:51.500Z,57.00
2023-03-26T10:00:37.076Z,55.59
2023-03-26T10:03:08.739Z,54.49
2023-03-26T10:05:57.772Z,54.59
2023-03-26T10:08:52.773Z,54.57
2023-03-26T10:11:43.093Z,55.17
2023-03-26T10:14:32.031Z,55.51
2023-03-26T10:17:17.201Z,55.09
2023-03-26T10:20:24.467Z,55.10
2023-03-26T10:23:16.059Z,55.26
2023-03-26T10:25:47.352Z,54.82
2023-03-26T10:28:25.261Z,55.20
2023-03-26T10:31:12.535Z,55.42
2023-03-26T10:33:53.768Z,55.15
2023-03-26T10:36:34.846Z,55.36
2023-03-26T10:39:37.637Z,55.23
2023-03-26T10:42:30.693Z,54.14
2023-03-26T10:45:34.067Z,54.09
2023-03-26T10:48:28.230Z,55.07
2023-03-26T10:51:17.737Z,54.74
2023-03-26T10:54:07.346Z,55.44
2023-03-26T10:56:49.963Z,55.21
2023-03-26T10:59:19.652Z,54.53
2023-03-26T11:02:19.972Z,52.50
2023-03-26T11:05:15.745Z,52.04
2023-03-26T11:08:33.767Z,52.18
2023-03-26T11:11:36.951Z,52.22
2023-03-26T11:14:33.799Z,51.71
2023-03-26T11:17:39.232Z,50.35
2023-03-26T11:20:39.136Z,49.07
2023-03-26T11:23:35.072Z,48.33
2023-03-26T11:26:30.797Z,48.75
2023-03-26T11:29:31.400Z,52.20
2023-03-26T11:32:03.898Z,53.43
2023-03-26T11:34:39.412Z,54.19
2023-03-26T11:37:19.302Z,53.75
2023-03-26T11:39:57.123Z,54.30
2023-03-26T11:42:29.192Z,53.53
2023-03-26T11:45:07.642Z,54.19
2023-03-26T11:47:48.377Z,53.66
2023-03-26T11:50:42.519Z,53.82
2023-03-26T11:53:18.270Z,54.97
2023-03-26T11:55:57.313Z,55.85
2023-03-26T11:58:39.705Z,54.90
2023-03-26T12:01:17.040Z,55.78
2023-03-26T12:03:59.146Z,54.41
2023-03-26T12:06:29.733Z,52.12
2023-03-26T12:08:59.645Z,52.19
2023-03-26T12:11:35.508Z,52.10
2023-03-26T12:14:06.644Z,52.15
2023-03-26T12:16:37.496Z,51.43
2023-03-26T12:19:22.472Z,51.57
2023-03-26T12:21:53.521Z,52.36
2023-03-26T12:24:29.657Z,52.70
2023-03-26T12:27:07.048Z,52.11
2023-03-26T12:29:36.997Z,52.01
2023-03-26T12:32:16.900Z,52.08
2023-03-26T12:34:48.261Z,51.88
2023-03-26T12:37:38.969Z,52.83
2023-03-26T12:40:25.731Z,52.02
2023-03-26T12:44:50.230Z,52.72
2023-03-26T12:47:26.465Z,51.71
2023-03-26T12:48:50.428Z,51.64
2023-03-26T12:51:32.186Z,50.39
2023-03-26T12:54:25.162Z,50.99
2023-03-26T12:57:20.688Z,51.17
2023-03-26T13:00:01.920Z,50.40
2023-03-26T13:03:00.647Z,50.68
2023-03-26T13:05:45.847Z,50.46
2023-03-26T13:08:58.584Z,50.90
2023-03-26T13:11:51.084Z,50.20
2023-03-26T13:14:35.334Z,49.99
2023-03-26T13:17:17.006Z,50.45
2023-03-26T13:20:12.890Z,50.73
2023-03-26T13:22:56.633Z,49.22
2023-03-26T13:25:38.568Z,49.63
2023-03-26T13:28:49.330Z,48.88
2023-03-26T13:31:34.752Z,49.23
2023-03-26T13:34:23.405Z,49.80
2023-03-26T13:37:21.489Z,50.27
2023-03-26T13:39:57.899Z,50.61
2023-03-26T13:43:11.180Z,50.18
2023-03-26T13:46:02.934Z,50.39
2023-03-26T13:48:42.543Z,50.55
2023-03-26T13:51:37.601Z,50.27
2023-03-26T13:54:17.648Z,49.34
2023-03-26T13:56:55.649Z,49.59
2023-03-26T13:59:50.573Z,49.47
2023-03-26T14:02:38.027Z,50.28
2023-03-26T14:05:17.960Z,50.26
2023-03-26T14:08:01.720Z,49.82
2023-03-26T14:10:36.857Z,50.47
2023-03-26T14:13:44.420Z,50.28
2023-03-26T14:16:21.166Z,50.11
2023-03-26T14:19:13.714Z,50.48
2023-03-26T14:22:14.507Z,49.85
2023-03-26T14:25:12.870Z,49.52
2023-03-26T14:28:04.714Z,50.37
2023-03-26T14:30:48.959Z,50.72
2023-03-26T14:33:48.677Z,49.66
2023-03-26T14:36:42.534Z,48.88
2023-03-26T14:39:19.254Z,49.39
2023-03-26T14:42:26.211Z,48.64
2023-03-26T14:45:48.851Z,49.16
2023-03-26T14:48:54.647Z,49.53
2023-03-26T14:51:52.993Z,49.24
2023-03-26T14:54:28.808Z,49.19
2023-03-26T14:57:28.570Z,49.44
2023-03-26T15:00:34.942Z,49.31
2023-03-26T15:03:10.131Z,50.13
2023-03-26T15:06:11.835Z,50.43
2023-03-26T15:09:25.398Z,50.71
2023-03-26T15:12:12.923Z,50.96
2023-03-26T15:15:20.499Z,51.12
2023-03-26T15:18:21.167Z,50.53
2023-03-26T15:21:12.029Z,50.07
2023-03-26T15:24:05.092Z,49.73
2023-03-26T15:27:11.988Z,49.95
2023-03-26T15:30:23.803Z,50.49
2023-03-26T15:33:38.849Z,50.92
2023-03-26T15:36:17.372Z,51.32
2023-03-26T15:38:59.248Z,51.92
2023-03-26T15:42:08.914Z,52.66
2023-03-26T15:44:54.354Z,54.12
2023-03-26T15:47:48.014Z,55.02
2023-03-26T15:50:51.600Z,56.48
2023-03-26T15:53:34.573Z,55.41
2023-03-26T15:56:53.352Z,56.16
2023-03-26T15:59:43.842Z,58.17
2023-03-26T16:02:38.260Z,57.25
2023-03-26T16:05:28.301Z,55.68
2023-03-26T16:08:39.624Z,55.59
2023-03-26T16:11:13.119Z,54.89
2023-03-26T16:13:49.994Z,55.44
2023-03-26T16:16:54.457Z,56.17
2023-03-26T16:19:24.839Z,56.39
2023-03-26T16:22:07.997Z,55.96
2023-03-26T16:24:42.887Z,55.53
2023-03-26T16:27:15.877Z,55.73
2023-03-26T16:30:10.614Z,55.73
2023-03-26T16:32:56.485Z,55.79
2023-03-26T16:35:40.689Z,56.03
2023-03-26T16:38:15.121Z,56.28
2023-03-26T16:41:15.846Z,56.56
2023-03-26T16:44:02.867Z,56.62
2023-03-26T16:46:59.221Z,56.73
2023-03-26T16:49:48.310Z,56.69
2023-03-26T16:52:59.145Z,56.55
2023-03-26T16:55:47.989Z,56.63
2023-03-26T16:58:28.113Z,56.97
2023-03-26T17:01:21.630Z,57.00
2023-03-26T17:03:59.351Z,56.66
2023-03-26T17:07:14.605Z,56.62
2023-03-26T17:10:02.200Z,56.44
2023-03-26T17:12:56.676Z,56.23
2023-03-26T17:15:52.288Z,56.15
2023-03-26T17:18:51.748Z,55.96
2023-03-26T17:21:47.087Z,56.23
2023-03-26T17:24:28.040Z,56.40
2023-03-26T17:27:48.098Z,56.70
2023-03-26T17:30:51.901Z,57.22
2023-03-26T17:33:27.900Z,57.79
2023-03-26T17:36:13.511Z,58.37
2023-03-26T17:38:47.996Z,59.24
2023-03-26T17:42:02.409Z,59.50
2023-03-26T17:44:43.120Z,60.08
2023-03-26T17:47:36.505Z,60.57
2023-03-26T17:50:20.342Z,60.83
2023-03-26T17:52:49.890Z,60.92
2023-03-26T17:55:31.530Z,60.84
2023-03-26T17:58:04.223Z,60.87
2023-03-26T18:00:43.846Z,60.92
2023-03-26T18:03:31.281Z,61.19
2023-03-26T18:06:33.214Z,61.55
2023-03-26T18:09:17.895Z,61.64
2023-03-26T18:11:51.265Z,61.79
2023-03-26T18:14:29.129Z,62.04
2023-03-26T18:17:00.878Z,62.21
2023-03-26T18:19:46.170Z,62.40
2023-03-26T18:22:26.941Z,62.60
2023-03-26T18:25:00.627Z,62.81
2023-03-26T18:27:38.754Z,63.03
2023-03-26T18:30:17.129Z,63.29
2023-03-26T18:33:14.046Z,63.44
2023-03-26T18:35:52.299Z,63.54
2023-03-26T18:38:36.780Z,63.70
2023-03-26T18:41:31.916Z,63.83
2023-03-26T18:44:06.451Z,63.90
2023-03-26T18:46:36.162Z,64.08
2023-03-26T18:49:06.794Z,64.12
2023-03-26T18:51:46.356Z,64.31
2023-03-26T18:54:21.779Z,64.41
2023-03-26T18:56:52.472Z,64.54
2023-03-26T18:59:29.821Z,64.80
2023-03-26T19:02:14.348Z,64.91
2023-03-26T19:04:47.076Z,65.28
2023-03-26T19:07:22.693Z,65.47
2023-03-26T19:09:56.585Z,65.59
2023-03-26T19:12:33.505Z,65.71
2023-03-26T19:15:12.644Z,65.66
2023-03-26T19:17:57.217Z,65.57
2023-03-26T19:20:32.389Z,65.54
2023-03-26T19:23:05.613Z,65.50
2023-03-26T19:25:49.001Z,65.61
2023-03-26T19:28:28.841Z,65.59
2023-03-26T19:31:10.849Z,65.46
2023-03-26T19:33:44.581Z,65.38
2023-03-26T19:36:18.269Z,65.41
2023-03-26T19:38:53.612Z,65.42
2023-03-26T19:41:26.974Z,65.47
2023-03-26T19:44:01.510Z,65.44
2023-03-26T19:46:53.940Z,65.39
2023-03-26T19:49:48.386Z,65.38
2023-03-26T19:52:27.389Z,65.33
2023-03-26T19:55:12.673Z,65.63
2023-03-26T19:57:43.527Z,65.74
2023-03-26T20:00:16.590Z,65.83
2023-03-26T20:02:48.125Z,65.95
2023-03-26T20:05:23.814Z,65.90
2023-03-26T20:07:58.224Z,66.00
2023-03-26T20:10:28.732Z,65.95
2023-03-26T20:12:59.970Z,66.01
2023-03-26T20:15:33.841Z,65.98
2023-03-26T20:18:04.545Z,65.89
2023-03-26T20:20:34.874Z,65.79
2023-03-26T20:23:04.245Z,65.70
2023-03-26T20:25:35.397Z,65.57
2023-03-26T20:28:04.691Z,65.52
2023-03-26T20:30:37.715Z,65.77
2023-03-26T20:33:16.988Z,66.05
2023-03-26T20:35:46.991Z,66.13
2023-03-26T20:38:17.048Z,66.27
2023-03-26T20:40:49.510Z,66.48
2023-03-26T20:43:24.586Z,66.65
2023-03-26T20:45:54.419Z,66.62
2023-03-26T20:48:27.371Z,66.68
2023-03-26T20:50:58.183Z,66.64
2023-03-26T20:53:28.625Z,66.69
2023-03-26T20:55:58.143Z,66.63
2023-03-26T20:58:31.517Z,66.49
2023-03-26T21:01:02.614Z,66.40
2023-03-26T21:03:31.778Z,66.23
2023-03-26T21:06:10.715Z,66.17
2023-03-26T21:08:43.747Z,66.04
2023-03-26T21:11:34.891Z,65.93
2023-03-26T21:14:15.950Z,66.09
2023-03-26T21:16:49.237Z,66.11
2023-03-26T21:19:18.561Z,66.35
2023-03-26T21:22:17.262Z,66.35
2023-03-26T21:25:15.936Z,66.32
2023-03-26T21:27:52.266Z,66.36
2023-03-26T21:30:22.477Z,66.35
2023-03-26T21:32:51.554Z,66.44
2023-03-26T21:35:20.795Z,66.61
2023-03-26T21:37:49.762Z,66.55
2023-03-26T21:40:22.005Z,66.53
2023-03-26T21:42:55.898Z,66.67
2023-03-26T21:45:24.867Z,66.63
2023-03-26T21:47:53.878Z,66.80
2023-03-26T21:50:23.825Z,66.86
2023-03-26T21:52:52.901Z,66.88
2023-03-26T21:55:24.142Z,66.82
2023-03-26T21:58:02.148Z,66.97
2023-03-26T22:00:54.936Z,67.02
2023-03-26T22:03:47.536Z,67.35
2023-03-26T22:06:24.791Z,67.32
2023-03-26T22:08:53.602Z,67.38
2023-03-26T22:11:25.680Z,67.48
2023-03-26T22:13:57.427Z,67.63
2023-03-26T22:16:26.028Z,67.74
2023-03-26T22:18:55.007Z,67.79
2023-03-26T22:21:23.700Z,67.86
2023-03-26T22:23:53.383Z,67.86
2023-03-26T22:26:24.089Z,67.72
2023-03-26T22:28:53.822Z,67.77
2023-03-26T22:31:22.659Z,67.81
2023-03-26T22:33:51.212Z,67.93
2023-03-26T22:36:22.141Z,68.01
2023-03-26T22:38:54.339Z,68.01
2023-03-26T22:41:23.653Z,68.14
2023-03-26T22:43:56.861Z,68.47
2023-03-26T22:46:26.855Z,68.68
2023-03-26T22:48:57.869Z,68.94
2023-03-26T22:51:28.198Z,69.27
2023-03-26T22:53:57.306Z,69.43
2023-03-26T22:56:25.986Z,69.69
2023-03-26T22:58:54.764Z,70.04
2023-03-26T23:01:25.256Z,70.43
2023-03-26T23:03:55.133Z,70.61
2023-03-26T23:06:23.691Z,70.92
2023-03-26T23:08:52.395Z,71.44
2023-03-26T23:11:22.318Z,72.01
2023-03-26T23:13:52.018Z,72.62
2023-03-26T23:16:21.836Z,72.88
2023-03-26T23:18:54.101Z,73.11
2023-03-26T23:21:25.845Z,73.38
2023-03-26T23:23:54.744Z,73.66
2023-03-26T23:26:24.344Z,73.60
2023-03-26T23:28:53.040Z,73.84
2023-03-26T23:31:22.257Z,73.87
2023-03-26T23:33:51.023Z,73.73
2023-03-26T23:36:21.181Z,74.04
2023-03-26T23:38:51.736Z,74.03
2023-03-26T23:41:23.523Z,74.20
2023-03-26T23:43:55.695Z,74.66
2023-03-26T23:46:31.080Z,74.84
2023-03-26T23:49:02.647Z,74.91
2023-03-26T23:51:32.692Z,75.02
2023-03-26T23:54:02.543Z,75.07
2023-03-26T23:56:32.117Z,75.02
2023-03-26T23:59:00.914Z,74.98
